sensor_id;sensor_type;location;lat;lon;timestamp;pressure;altitude;pressure_sealevel;temperature;humidity
15558;BME280;7880;50.110;9.372;2022-12-26T00:03:41;9.846984674554552;;;10.062;100.0
15558;BME280;7880;50.110;9.372;2022-12-26T00:08:48;9.882280522957444;;;10.062;100.0
15558;BME280;7880;50.110;9.372;2022-12-26T00:13:45;9.82177336299792;;;10.062;100.0
15558;BME280;7880;50.110;9.372;2022-12-26T00:18:49;10.013379513309337;;;10.125;100.0
15558;BME280;7880;50.110;9.372;2022-12-26T00:23:55;9.887322788179153;;;10.062;100.0
15558;BME280;7880;50.110;9.372;2022-12-26T00:29:02;9.937745456403354;;;10.125;100.0
15558;BME280;7880;50.110;9.372;2022-12-26T00:34:03;9.922618652880193;;;10.125;100.0
15558;BME280;7880;50.110;9.372;2022-12-26T00:39:08;9.988168153731385;;;10.125;100.0
15558;BME280;7880;50.110;9.372;2022-12-26T00:44:12;9.852026937738993;;;10.062;100.0
15558;BME280;7880;50.110;9.372;2022-12-26T00:49:17;10.028506332548568;;;10.187;100.0
15558;BME280;7880;50.110;9.372;2022-12-26T00:54:25;10.043633154407143;;;10.25;100.0
15558;BME280;7880;50.110;9.372;2022-12-26T00:59:29;9.967999071307712;;;10.187;100.0
15558;BME280;7880;50.110;9.372;2022-12-26T01:04:42;9.932703188271262;;;10.125;100.0
15558;BME280;7880;50.110;9.372;2022-12-26T01:09:43;9.907491851976374;;;10.062;100.0
15558;BME280;7880;50.110;9.372;2022-12-26T01:14:49;9.947829993540655;;;10.125;100.0
15558;BME280;7880;50.110;9.372;2022-12-26T01:19:50;9.857069201214472;;;10.062;100.0
15558;BME280;7880;50.110;9.372;2022-12-26T01:25:02;9.902449585590512;;;10.062;100.0
15558;BME280;7880;50.110;9.372;2022-12-26T01:30:10;9.867153729038545;;;10.0;100.0
15558;BME280;7880;50.110;9.372;2022-12-26T01:35:06;9.86211146498099;;;10.0;100.0
15558;BME280;7880;50.110;9.372;2022-12-26T01:40:12;9.801604318991304;;;9.937;100.0
15558;BME280;7880;50.110;9.372;2022-12-26T01:45:23;9.841942411661147;;;10.0;100.0
15558;BME280;7880;50.110;9.372;2022-12-26T01:50:28;9.922618652880193;;;10.062;100.0
15558;BME280;7880;50.110;9.372;2022-12-26T01:55:31;9.816731101559707;;;10.0;100.0
15558;BME280;7880;50.110;9.372;2022-12-26T02:00:43;9.927660920430208;;;10.062;100.0
15558;BME280;7880;50.110;9.372;2022-12-26T02:05:46;9.877238258026773;;;10.0;100.0
15558;BME280;7880;50.110;9.372;2022-12-26T02:10:53;9.937745456403354;;;10.062;100.0
15558;BME280;7880;50.110;9.372;2022-12-26T02:21:03;10.099098190298538;;;10.187;100.0
15558;BME280;7880;50.110;9.372;2022-12-26T02:26:47;10.11422502438072;;;10.25;100.0
15558;BME280;7880;50.110;9.372;2022-12-26T02:31:37;10.109182746062288;;;10.25;100.0
15558;BME280;7880;50.110;9.372;2022-12-26T02:36:48;9.978083611937473;;;10.125;100.0
15558;BME280;7880;50.110;9.372;2022-12-26T02:41:44;9.967999071307712;;;10.125;100.0
15558;BME280;7880;50.110;9.372;2022-12-26T02:47:22;9.922618652880193;;;10.062;100.0
15558;BME280;7880;50.110;9.372;2022-12-26T03:13:19;10.134394140564837;;;10.25;100.0
15558;BME280;7880;50.110;9.372;2022-12-26T03:18:03;10.169690105092013;;;10.312;100.0
15558;BME280;7880;50.110;9.372;2022-12-26T03:23:07;10.12935186108225;;;10.312;100.0
15558;BME280;7880;50.110;9.372;2022-12-26T03:28:11;10.083971358835697;;;10.25;100.0
15558;BME280;7880;50.110;9.372;2022-12-26T03:34:20;10.089013635698938;;;10.25;100.0
15558;BME280;7880;50.110;9.372;2022-12-26T03:39:14;10.124309581890703;;;10.25;100.0
15558;BME280;7880;50.110;9.372;2022-12-26T04:19:45;10.078929082263494;;;10.187;100.0
15558;BME280;7880;50.110;9.372;2022-12-26T04:45:09;10.109182746062288;;;10.25;100.0
15558;BME280;7880;50.110;9.372;2022-12-26T04:50:12;10.089013635698938;;;10.25;100.0
15558;BME280;7880;50.110;9.372;2022-12-26T04:55:16;10.144478700403123;;;10.25;100.0
15558;BME280;7880;50.110;9.372;2022-12-26T05:00:22;10.12935186108225;;;10.312;100.0
15558;BME280;7880;50.110;9.372;2022-12-26T05:12:08;10.230197506031255;;;10.312;100.0
15558;BME280;7880;50.110;9.372;2022-12-26T05:31:01;10.089013635698938;;;10.25;100.0
15558;BME280;7880;50.110;9.372;2022-12-26T05:36:01;10.12935186108225;;;10.25;100.0
15558;BME280;7880;50.110;9.372;2022-12-26T05:41:06;10.134394140564837;;;10.25;100.0
15558;BME280;7880;50.110;9.372;2022-12-26T05:46:09;10.078929082263494;;;10.187;100.0
15558;BME280;7880;50.110;9.372;2022-12-26T05:51:19;10.19490151705686;;;10.312;100.0
15558;BME280;7880;50.110;9.372;2022-12-26T05:56:16;10.068844529992202;;;10.187;100.0
15558;BME280;7880;50.110;9.372;2022-12-26T06:01:20;10.134394140564837;;;10.25;100.0
15558;BME280;7880;50.110;9.372;2022-12-26T06:06:24;10.159605542343343;;;10.25;100.0
15558;BME280;7880;50.110;9.372;2022-12-26T06:11:38;10.174732386902907;;;10.312;100.0
15558;BME280;7880;50.110;9.372;2022-12-26T06:16:31;10.250366648990894;;;10.375;100.0
15558;BME280;7880;50.110;9.372;2022-12-26T06:21:35;10.144478700403123;;;10.25;100.0
15558;BME280;7880;50.110;9.372;2022-12-26T06:26:38;10.154563261405565;;;10.312;100.0
15558;BME280;7880;50.110;9.372;2022-12-26T06:31:57;10.094055912853218;;;10.25;100.0
15558;BME280;7880;50.110;9.372;2022-12-26T06:36:46;10.04867542894208;;;10.187;100.0
15558;BME280;7880;50.110;9.372;2022-12-26T06:41:48;10.099098190298538;;;10.187;100.0
15558;BME280;7880;50.110;9.372;2022-12-26T06:46:54;10.068844529992202;;;10.187;100.0
15558;BME280;7880;50.110;9.372;2022-12-26T06:51:59;10.033548606210388;;;10.187;100.0
15558;BME280;7880;50.110;9.372;2022-12-26T06:57:02;10.038590880163246;;;10.187;100.0
15558;BME280;7880;50.110;9.372;2022-12-26T07:02:05;10.12935186108225;;;10.25;100.0
15558;BME280;7880;50.110;9.372;2022-12-26T07:07:10;10.083971358835697;;;10.187;100.0
15558;BME280;7880;50.110;9.372;2022-12-26T07:12:20;9.998252696689452;;;10.125;100.0
15558;BME280;7880;50.110;9.372;2022-12-26T07:17:18;9.98312588268891;;;10.062;100.0
15558;BME280;7880;50.110;9.372;2022-12-26T07:22:27;9.912534118653275;;;10.0;100.0
15558;BME280;7880;50.110;9.372;2022-12-26T07:27:29;9.887322788179153;;;9.937;100.0
15558;BME280;7880;50.110;9.372;2022-12-26T07:32:32;9.846984674554552;;;9.937;100.0
15558;BME280;7880;50.110;9.372;2022-12-26T07:37:36;9.77135076171253;;;9.812;100.0
15558;BME280;7880;50.110;9.372;2022-12-26T07:42:41;9.7814352796413;;;9.812;100.0
15558;BME280;7880;50.110;9.372;2022-12-26T07:47:44;9.74613947198377;;;9.75;100.0
15558;BME280;7880;50.110;9.372;2022-12-26T07:52:58;9.72092818953097;;;9.75;100.0
15558;BME280;7880;50.110;9.372;2022-12-26T07:57:52;9.725970445439453;;;9.75;100.0
15558;BME280;7880;50.110;9.372;2022-12-26T08:03:04;9.69067466019187;;;9.687;100.0
15558;BME280;7880;50.110;9.372;2022-12-26T08:08:04;9.700759168807418;;;9.687;100.0
15558;BME280;7880;50.110;9.372;2022-12-26T08:13:04;9.665463393746176;;;9.687;100.0
15558;BME280;7880;50.110;9.372;2022-12-26T08:18:07;9.64025213457644;;;9.625;100.0
15558;BME280;7880;50.110;9.372;2022-12-26T08:21:53;9.594871886406327;;;9.625;100.0
15558;BME280;7880;50.110;9.372;2022-12-26T08:26:57;9.579745142254978;;;9.625;100.0
15558;BME280;7880;50.110;9.372;2022-12-26T08:32:10;9.554533907823497;;;9.562;100.0
15558;BME280;7880;50.110;9.372;2022-12-26T08:37:04;9.534364925517002;;;9.562;100.0
15558;BME280;7880;50.110;9.372;2022-12-26T08:42:07;9.524280436109985;;;9.562;100.0
15558;BME280;7880;50.110;9.372;2022-12-26T08:47:12;9.529322680667974;;;9.562;100.0
15558;BME280;7880;50.110;9.372;2022-12-26T08:52:15;9.574702894786606;;;9.562;100.0
15558;BME280;7880;50.110;9.372;2022-12-26T08:57:19;9.539407170657068;;;9.562;100.0
15558;BME280;7880;50.110;9.372;2022-12-26T09:02:23;9.524280436109985;;;9.5;100.0
15558;BME280;7880;50.110;9.372;2022-12-26T09:07:25;9.49402697487385;;;9.5;100.0
15558;BME280;7880;50.110;9.372;2022-12-26T09:12:32;9.514195947867119;;;9.5;100.0
15558;BME280;7880;50.110;9.372;2022-12-26T09:17:34;9.514195947867119;;;9.5;100.0
15558;BME280;7880;50.110;9.372;2022-12-26T09:22:55;9.524280436109985;;;9.562;100.0
15558;BME280;7880;50.110;9.372;2022-12-26T09:27:56;9.539407170657068;;;9.562;100.0
15558;BME280;7880;50.110;9.372;2022-12-26T09:33:00;9.534364925517002;;;9.562;100.0
15558;BME280;7880;50.110;9.372;2022-12-26T09:38:01;9.488984732353128;;;9.5;100.0
15558;BME280;7880;50.110;9.372;2022-12-26T09:43:15;9.49402697487385;;;9.5;100.0
15558;BME280;7880;50.110;9.372;2022-12-26T09:48:13;9.544449416088174;;;9.562;100.0
15558;BME280;7880;50.110;9.372;2022-12-26T09:53:15;9.463773524115094;;;9.5;100.0
15558;BME280;7880;50.110;9.372;2022-12-26T09:58:23;9.458731283340603;;;9.437;100.0
15558;BME280;7880;50.110;9.372;2022-12-26T10:03:36;9.423435606068233;;;9.437;100.0
15558;BME280;7880;50.110;9.372;2022-12-26T10:08:38;9.438562323153018;;;9.437;100.0
15558;BME280;7880;50.110;9.372;2022-12-26T10:13:36;9.418393367622048;;;9.437;100.0
15558;BME280;7880;50.110;9.372;2022-12-26T10:18:38;9.4133511294669;;;9.437;100.0
15558;BME280;7880;50.110;9.372;2022-12-26T10:23:38;9.45368904285715;;;9.5;100.0
15558;BME280;7880;50.110;9.372;2022-12-26T10:28:44;9.408308891602791;;;9.437;100.0
15558;BME280;7880;50.110;9.372;2022-12-26T10:34:07;9.403266654029721;;;9.437;100.0
15558;BME280;7880;50.110;9.372;2022-12-26T10:38:52;9.443604562763358;;;9.437;100.0
15558;BME280;7880;50.110;9.372;2022-12-26T10:43:54;9.463773524115094;;;9.5;100.0
15558;BME280;7880;50.110;9.372;2022-12-26T10:48:58;9.45368904285715;;;9.437;100.0
15558;BME280;7880;50.110;9.372;2022-12-26T10:54:07;9.423435606068233;;;9.437;100.0
15558;BME280;7880;50.110;9.372;2022-12-26T10:59:15;9.383097706647822;;;9.437;100.0
15558;BME280;7880;50.110;9.372;2022-12-26T11:04:15;9.373013234703103;;;9.375;100.0
15558;BME280;7880;50.110;9.372;2022-12-26T11:09:26;9.342759825853864;;;9.375;100.0
15558;BME280;7880;50.110;9.372;2022-12-26T11:14:30;9.322590892441804;;;9.312;100.0
15558;BME280;7880;50.110;9.372;2022-12-26T11:19:28;9.246957433619537;;;9.25;100.0
15558;BME280;7880;50.110;9.372;2022-12-26T11:24:28;9.25199966217042;;;9.25;100.0
15558;BME280;7880;50.110;9.372;2022-12-26T11:29:36;9.221746295230696;;;9.187;100.0
15558;BME280;7880;50.110;9.372;2022-12-26T11:34:47;9.231830749713117;;;9.187;100.0
15558;BME280;7880;50.110;9.372;2022-12-26T11:39:43;9.236872977390885;;;9.25;100.0
15558;BME280;7880;50.110;9.372;2022-12-26T11:44:50;9.221746295230696;;;9.187;100.0
15558;BME280;7880;50.110;9.372;2022-12-26T11:49:58;9.196535164117813;;;9.187;100.0
15558;BME280;7880;50.110;9.372;2022-12-26T11:55:00;9.181408488942543;;;9.187;100.0
15558;BME280;7880;50.110;9.372;2022-12-26T12:00:14;9.166281816386618;;;9.187;100.0
15558;BME280;7880;50.110;9.372;2022-12-26T12:05:12;9.156197369471192;;;9.187;100.0
15558;BME280;7880;50.110;9.372;2022-12-26T12:10:43;9.14611292371992;;;9.125;100.0
15558;BME280;7880;50.110;9.372;2022-12-26T12:15:35;9.196535164117813;;;9.187;100.0
15558;BME280;7880;50.110;9.372;2022-12-26T12:21:01;9.14611292371992;;;9.187;100.0
15558;BME280;7880;50.110;9.372;2022-12-26T12:26:01;9.186450713709927;;;9.187;100.0
15558;BME280;7880;50.110;9.372;2022-12-26T12:30:55;9.161239592783385;;;9.187;100.0
15558;BME280;7880;50.110;9.372;2022-12-26T12:36:04;9.216704068426044;;;9.187;100.0
15558;BME280;7880;50.110;9.372;2022-12-26T12:41:12;9.25199966217042;;;9.25;100.0
15558;BME280;7880;50.110;9.372;2022-12-26T12:46:09;9.267126349569299;;;9.25;100.0
15558;BME280;7880;50.110;9.372;2022-12-26T12:51:19;9.181408488942543;;;9.187;100.0
15558;BME280;7880;50.110;9.372;2022-12-26T12:56:24;9.272168579284335;;;9.25;100.0
15558;BME280;7880;50.110;9.372;2022-12-26T13:01:21;9.231830749713117;;;9.25;100.0
15558;BME280;7880;50.110;9.372;2022-12-26T13:06:28;9.201577389758313;;;9.187;100.0
15558;BME280;7880;50.110;9.372;2022-12-26T13:11:43;9.166281816386618;;;9.187;100.0
15558;BME280;7880;50.110;9.372;2022-12-26T13:16:46;9.181408488942543;;;9.187;100.0
15558;BME280;7880;50.110;9.372;2022-12-26T13:21:59;9.156197369471192;;;9.187;100.0
15558;BME280;7880;50.110;9.372;2022-12-26T13:26:08;9.151155146450037;;;9.187;100.0
15558;BME280;7880;50.110;9.372;2022-12-26T13:31:07;9.161239592783385;;;9.187;100.0
15558;BME280;7880;50.110;9.372;2022-12-26T13:36:34;9.171324040280888;;;9.187;100.0
15558;BME280;7880;50.110;9.372;2022-12-26T13:47:31;9.166281816386618;;;9.187;100.0
15558;BME280;7880;50.110;9.372;2022-12-26T13:52:32;9.176366264466196;;;9.125;100.0
15558;BME280;7880;50.110;9.372;2022-12-26T13:57:34;9.151155146450037;;;9.187;100.0
15558;BME280;7880;50.110;9.372;2022-12-26T14:03:10;9.393182179756696;;;9.437;100.0
15558;BME280;7880;50.110;9.372;2022-12-26T14:07:57;9.206619615689851;;;9.25;100.0
15558;BME280;7880;50.110;9.372;2022-12-26T14:13:03;9.181408488942543;;;9.187;100.0
15558;BME280;7880;50.110;9.372;2022-12-26T14:18:11;9.211661841912427;;;9.187;100.0
15558;BME280;7880;50.110;9.372;2022-12-26T14:23:14;9.171324040280888;;;9.187;100.0
15558;BME280;7880;50.110;9.372;2022-12-26T14:28:15;9.176366264466196;;;9.187;100.0
15558;BME280;7880;50.110;9.372;2022-12-26T14:33:25;9.166281816386618;;;9.187;100.0
15558;BME280;7880;50.110;9.372;2022-12-26T14:38:31;9.156197369471192;;;9.187;100.0
15558;BME280;7880;50.110;9.372;2022-12-26T14:43:31;9.206619615689851;;;9.187;100.0
15558;BME280;7880;50.110;9.372;2022-12-26T14:49:17;9.110817372758174;;;9.125;100.0
15558;BME280;7880;50.110;9.372;2022-12-26T14:55:38;9.110817372758174;;;9.125;100.0
15558;BME280;7880;50.110;9.372;2022-12-26T15:00:29;9.12090181443491;;;9.187;100.0
15558;BME280;7880;50.110;9.372;2022-12-26T15:05:43;9.141070701280842;;;9.187;100.0
15558;BME280;7880;50.110;9.372;2022-12-26T15:11:50;9.100732932245592;;;9.125;100.0
15558;BME280;7880;50.110;9.372;2022-12-26T15:16:46;9.060395181836792;;;9.125;100.0
15558;BME280;7880;50.110;9.372;2022-12-26T15:21:58;9.090648492897163;;;9.125;100.0
15558;BME280;7880;50.110;9.372;2022-12-26T15:33:47;9.050310747144977;;;9.062;100.0
15558;BME280;7880;50.110;9.372;2022-12-26T15:38:54;8.757862647488945;;;8.812;100.0
15558;BME280;7880;50.110;9.372;2022-12-26T15:44:00;8.677187481947476;;;8.687;100.0
15558;BME280;7880;50.110;9.372;2022-12-26T15:49:07;8.606596773216733;;;8.625;100.0
15558;BME280;7880;50.110;9.372;2022-12-26T15:54:06;8.541048309043981;;;8.562;100.0
15558;BME280;7880;50.110;9.372;2022-12-26T15:59:30;8.50575300255441;;;8.5;100.0
15558;BME280;7880;50.110;9.372;2022-12-26T16:04:21;8.485584262391786;;;8.5;100.0
15558;BME280;7880;50.110;9.372;2022-12-26T16:09:26;8.480542078078724;;;8.437;100.0
15558;BME280;7880;50.110;9.372;2022-12-26T16:14:28;8.147758556902408;;;8.25;100.0
15558;BME280;7880;50.110;9.372;2022-12-26T16:19:26;7.472111065336503;;;7.437;100.0
15558;BME280;7880;50.110;9.372;2022-12-26T16:24:31;7.386394966073567;;;7.312;100.0
15558;BME280;7880;50.110;9.372;2022-12-26T16:29:44;7.255299918126548;;;7.25;100.0
15558;BME280;7880;50.110;9.372;2022-12-26T16:34:57;7.396479208680103;;;7.312;100.0
15558;BME280;7880;50.110;9.372;2022-12-26T16:39:46;7.5275744685030075;;;7.5;100.0
15558;BME280;7880;50.110;9.372;2022-12-26T16:44:45;7.446900439175079;;;7.437;100.0
15558;BME280;7880;50.110;9.372;2022-12-26T16:49:49;7.784723434224725;;;7.625;100.0
15558;BME280;7880;50.110;9.372;2022-12-26T16:54:52;7.467068939522141;;;7.437;100.0
15558;BME280;7880;50.110;9.372;2022-12-26T16:59:58;7.512448082328774;;;7.437;100.0
15558;BME280;7880;50.110;9.372;2022-12-26T17:05:03;7.351100126118399;;;7.375;100.0
15558;BME280;7880;50.110;9.372;2022-12-26T17:10:15;7.35614224523888;;;7.312;100.0
15558;BME280;7880;50.110;9.372;2022-12-26T17:15:18;7.295636835001642;;;7.25;100.0
15558;BME280;7880;50.110;9.372;2022-12-26T17:20:45;7.250257804826833;;;7.25;100.0
15558;BME280;7880;50.110;9.372;2022-12-26T17:25:28;7.23513146667392;;;7.25;100.0
15558;BME280;7880;50.110;9.372;2022-12-26T17:30:30;7.194794577738503;;;7.187;100.0
15558;BME280;7880;50.110;9.372;2022-12-26T17:35:39;7.129247172945179;;;7.187;100.0
15558;BME280;7880;50.110;9.372;2022-12-26T17:40:41;7.134289279259974;;;7.125;100.0
15558;BME280;7880;50.110;9.372;2022-12-26T17:45:48;7.088910332904197;;;7.062;100.0
15558;BME280;7880;50.110;9.372;2022-12-26T17:50:55;7.03344720826135;;;7.062;100.0
15558;BME280;7880;50.110;9.372;2022-12-26T17:55:59;7.078826125804335;;;7.062;100.0
15558;BME280;7880;50.110;9.372;2022-12-26T18:01:01;7.098994541168213;;;7.125;100.0
15558;BME280;7880;50.110;9.372;2022-12-26T18:06:08;7.139331385865807;;;7.125;100.0
15558;BME280;7880;50.110;9.372;2022-12-26T18:11:13;7.1040366457367785;;;7.125;100.0
15558;BME280;7880;50.110;9.372;2022-12-26T18:16:18;7.114120855747023;;;7.125;100.0
15558;BME280;7880;50.110;9.372;2022-12-26T18:21:19;7.003194609662751;;;7.062;100.0
15558;BME280;7880;50.110;9.372;2022-12-26T18:26:25;6.942689443897689;;;7.0;100.0
15558;BME280;7880;50.110;9.372;2022-12-26T18:31:28;6.882184320042143;;;6.875;100.0
15558;BME280;7880;50.110;9.372;2022-12-26T18:36:14;6.826721326657571;;;6.812;100.0
15558;BME280;7880;50.110;9.372;2022-12-26T18:41:20;6.791426712839166;;;6.812;100.0
15558;BME280;7880;50.110;9.372;2022-12-26T18:46:31;6.826721326657571;;;6.812;100.0
15558;BME280;7880;50.110;9.372;2022-12-26T18:51:25;6.81159506184631;;;6.75;100.0
15558;BME280;7880;50.110;9.372;2022-12-26T18:56:28;6.725879610725679;;;6.75;100.0
15558;BME280;7880;50.110;9.372;2022-12-26T19:01:33;6.640164243715117;;;6.687;100.0
15558;BME280;7880;50.110;9.372;2022-12-26T19:06:37;6.619995934289181;;;6.625;100.0
15558;BME280;7880;50.110;9.372;2022-12-26T19:11:45;6.5241965281078595;;;6.562;100.0
15558;BME280;7880;50.110;9.372;2022-12-26T19:16:47;6.498986175522441;;;6.5;100.0
15558;BME280;7880;50.110;9.372;2022-12-26T19:21:50;6.473775830212981;;;6.5;100.0
15558;BME280;7880;50.110;9.372;2022-12-26T19:26:55;6.388060710584978;;;6.375;100.0
15558;BME280;7880;50.110;9.372;2022-12-26T19:32:01;6.337640091270441;;;6.375;100.0
15558;BME280;7880;50.110;9.372;2022-12-26T19:37:03;6.337640091270441;;;6.375;100.0
15558;BME280;7880;50.110;9.372;2022-12-26T19:42:06;6.009906775131822;;;6.125;100.0
15558;BME280;7880;50.110;9.372;2022-12-26T19:47:10;6.030074943695217;;;6.062;100.0
15558;BME280;7880;50.110;9.372;2022-12-26T19:52:14;5.979654531017877;;;5.937;100.0
15558;BME280;7880;50.110;9.372;2022-12-26T19:57:17;5.883855827111984;;;5.937;100.0
15558;BME280;7880;50.110;9.372;2022-12-26T20:02:23;5.762847088143462;;;5.812;100.0
15558;BME280;7880;50.110;9.372;2022-12-26T20:07:28;5.73259492959478;;;5.75;100.0
15558;BME280;7880;50.110;9.372;2022-12-26T20:12:32;5.5309141403588;;;5.562;100.0
15558;BME280;7880;50.110;9.372;2022-12-26T20:17:35;5.591418328235159;;;5.625;100.0
15558;BME280;7880;50.110;9.372;2022-12-26T20:22:39;5.515788099938073;;;5.562;100.0
15558;BME280;7880;50.110;9.372;2022-12-26T20:27:43;5.455283964448609;;;5.5;100.0
15558;BME280;7880;50.110;9.372;2022-12-26T20:32:56;5.3998218770662785;;;5.437;100.0
15558;BME280;7880;50.110;9.372;2022-12-26T20:37:53;5.389737864962081;;;5.437;100.0
15558;BME280;7880;50.110;9.372;2022-12-26T20:42:57;5.293939808034338;;;5.312;100.0
15558;BME280;7880;50.110;9.372;2022-12-26T20:48:01;5.283855808153748;;;5.25;100.0
15558;BME280;7880;50.110;9.372;2022-12-26T20:53:05;5.172931886301376;;;5.187;100.0
15558;BME280;7880;50.110;9.372;2022-12-26T20:58:09;5.167889893200481;;;5.125;100.0
15558;BME280;7880;50.110;9.372;2022-12-26T21:03:19;5.18301587337628;;;5.187;100.0
15558;BME280;7880;50.110;9.372;2022-12-26T21:08:19;5.087218043167377;;;5.125;100.0
15558;BME280;7880;50.110;9.372;2022-12-26T21:13:29;5.0771340671519285;;;5.125;100.0
15558;BME280;7880;50.110;9.372;2022-12-26T21:18:29;5.051924132206477;;;5.062;100.0
15558;BME280;7880;50.110;9.372;2022-12-26T21:23:36;4.996462300937855;;;5.062;100.0
15558;BME280;7880;50.110;9.372;2022-12-26T21:28:37;4.840160965919495;;;4.937;100.0
15558;BME280;7880;50.110;9.372;2022-12-26T21:33:42;4.779657298419624;;;4.812;100.0
15558;BME280;7880;50.110;9.372;2022-12-26T21:38:47;4.663692052854458;;;4.75;100.0
15558;BME280;7880;50.110;9.372;2022-12-26T21:43:49;4.628398313024081;;;4.687;100.0
15558;BME280;7880;50.110;9.372;2022-12-26T21:48:56;4.567894792207516;;;4.625;100.0
15558;BME280;7880;50.110;9.372;2022-12-26T21:55:26;4.532601091085235;;;4.562;100.0
15558;BME280;7880;50.110;9.372;2022-12-26T22:00:13;4.542685004236409;;;4.625;100.0
15558;BME280;7880;50.110;9.372;2022-12-26T22:05:12;4.3964683774858715;;;4.437;100.0
15558;BME280;7880;50.110;9.372;2022-12-26T22:12:56;4.315797239914536;;;4.375;100.0
15558;BME280;7880;50.110;9.372;2022-12-26T22:17:39;4.129245519643883;;;4.187;100.0
15558;BME280;7880;50.110;9.372;2022-12-26T22:22:40;4.063700415217317;;;4.125;100.0
15558;BME280;7880;50.110;9.372;2022-12-26T22:27:45;3.937652275717119;;;4.062;100.0
15558;BME280;7880;50.110;9.372;2022-12-26T22:32:48;3.7914366617798807;;;3.875;100.0
15558;BME280;7880;50.110;9.372;2022-12-26T22:37:53;3.6048860614246223;;;3.687;100.0
15558;BME280;7880;50.110;9.372;2022-12-26T22:43:00;3.423377751611406;;;3.5;100.0
15558;BME280;7880;50.110;9.372;2022-12-26T22:48:08;3.282204882527003;;;3.375;100.0
15558;BME280;7880;50.110;9.372;2022-12-26T22:53:14;3.1611997477768456;;;3.25;100.0
15558;BME280;7880;50.110;9.372;2022-12-26T22:58:12;3.1561578708002345;;;3.187;100.0
15558;BME280;7880;50.110;9.372;2022-12-26T23:03:17;3.025069171562791;;;3.125;100.0
15558;BME280;7880;50.110;9.372;2022-12-26T23:08:23;3.020027302444214;;;3.125;100.0
15558;BME280;7880;50.110;9.372;2022-12-26T23:13:25;3.020027302444214;;;3.062;100.0
15558;BME280;7880;50.110;9.372;2022-12-26T23:25:22;2.7981853493547533;;;2.812;100.0
15558;BME280;7880;50.110;9.372;2022-12-26T23:30:30;2.7376830963010432;;;2.812;100.0
15558;BME280;7880;50.110;9.372;2022-12-26T23:35:29;2.717515687929699;;;2.75;100.0
15558;BME280;7880;50.110;9.372;2022-12-26T23:40:55;2.7578505093290007;;;2.75;100.0
15558;BME280;7880;50.110;9.372;2022-12-26T23:44:25;2.883896946255118;;;2.875;100.0
15558;BME280;7880;50.110;9.372;2022-12-26T23:49:31;2.994817961216904;;;2.937;100.0
15558;BME280;7880;50.110;9.372;2022-12-26T23:54:33;2.8233946338295937;;;2.875;100.0
15558;BME280;7880;50.110;9.372;2022-12-26T23:59:36;2.7124738365644587;;;2.812;100.0
